Brandon, Wisconsin
Current Conditions -  °F | °C
As of 5:53 PM on Saturday 20 Dec 2014 (Local Time) from KFLD Reporting Station
Haze Haze  
Wind Chill: 28°   Ceiling: 7500
Heat Index: 28°   Visibility: 6mi
Dew Point: 24°   Wind: 0mph
Humidity: 85%   Direction: NA
Pressure: 30.22"   Gusts: NA
Location:  43.74°N, 88.78°W
Report Text: KFLD 202353Z AUTO 00000KT 6SM BR SCT037 BKN075 M02/M04 A3022 RMK AO2 SLP246 60000 T10221044 11011 21028 58001
Loading
Personal Weather Stations






























Interactive Weather Map New forecast layout! Learn more

10-Day Weather Forecast

Advertisements
Track Severe Weather on mobile